Nearby METAR Reports

 

KTIW - Tacoma, Washington, USA
Distance from station: ESE 5mi, 8km
Updated: Tue, 23-Jul-2024 10:53pm PDT
Clear
Clear
 Wind from calm
Wind: Calm
Temperature: 63°F , 17°C
Dew Point: 43°F , 6°C
Humidity: 49%
Barometer: 30.09 inHg , 1019 hPa
Clouds: Clear
Visibility: 10 miles , 16 km
2024/07/24 05:53 KTIW 240553Z AUTO 00000KT 10SM CLR 17/06 A3009 RMK AO2 SLP189 T01720061 10239 20161 53010 $
KPWT - Bremerton Ntnl, Washington, USA
Distance from station: NNW 14mi, 23km
Updated: Tue, 23-Jul-2024 10:56pm PDT
Clear
Clear
 Wind from ENE
Wind: ENE 5 mph , 7 km/h
Temperature: 61°F , 16°C
Dew Point: 50°F , 10°C
Humidity: 68%
Barometer: 30.09 inHg , 1019 hPa
Clouds: Clear
Visibility: 10 miles , 16 km
2024/07/24 05:56 KPWT 240556Z AUTO 06004KT 10SM CLR 16/10 A3009 RMK AO2 SLP193 T01610100 10244 20161 50005
 
KTCM - Tacoma/Mc Chord, Washington, USA
Distance from station: SE 16mi, 26km
Updated: Tue, 23-Jul-2024 10:55pm PDT
Clear
Clear
 Wind from calm
Wind: Calm
Temperature: 64°F , 18°C
Dew Point: 46°F , 8°C
Humidity: 52%
Barometer: 30.08 inHg , 1018.6 hPa
Clouds: Clear
Visibility: 10 miles , 16 km
2024/07/24 05:55 KTCM 240555Z AUTO 00000KT 10SM CLR 18/08 A3008 RMK AO2 SLP189 T01840075 10251 20183 52011
KGRF - Fort Lewis/Gray, Washington, USA
Distance from station: SSE 17mi, 27km
Updated: Tue, 23-Jul-2024 10:55pm PDT
Clear
Clear
 Wind from W
Wind: W 6 mph , 9 km/h
Temperature: 64°F , 18°C
Dew Point: 45°F , 7°C
Humidity: 49%
Barometer: 30.06 inHg , 1017.9 hPa
Clouds: Clear
Visibility: 10 miles , 16 km
2024/07/24 05:55 KGRF 240555Z AUTO 27005KT 10SM CLR 18/07 A3006 RMK AO2 SLP182 T01810072 10257 20180 52013 $
 
KSEA - Seattle/Metro, Washington, USA
Distance from station: ENE 19mi, 31km
Updated: Tue, 23-Jul-2024 10:53pm PDT
Clear
Clear
 Wind from N
Wind: N 10 mph , 17 km/h
Temperature: 63°F , 17°C
Dew Point: 46°F , 8°C
Humidity: 56%
Barometer: 30.09 inHg , 1019 hPa
Clouds: Clear
Visibility: 10 miles , 16 km
2024/07/24 05:53 KSEA 240553Z 01009KT 10SM CLR 17/08 A3009 RMK AO2 SLP194 T01720078 10244 20161 53007
KSHN - Shelton, Washington, USA
Distance from station: WSW 22mi, 36km
Updated: Tue, 23-Jul-2024 10:53pm PDT
Clear
Clear
 Wind from WSW
Wind: WSW 8 mph , 13 km/h
Temperature: 61°F , 16°C
Dew Point: 48°F , 9°C
Humidity: 63%
Barometer: 30.07 inHg , 1018.3 hPa
Clouds: Clear
Visibility: 10 miles , 16 km
2024/07/24 05:53 KSHN 240553Z AUTO 25007KT 10SM CLR 16/09 A3007 RMK AO2 SLP183 T01560094 10261 20156 53009
 
KPLU - Puyallup/Thun, Washington, USA
Distance from station: SE 23mi, 37km
Updated: Tue, 23-Jul-2024 10:55pm PDT
Few Clouds
Few Clouds
 Wind from calm
Wind: Calm
Temperature: 59°F , 15°C
Dew Point: 48°F , 9°C
Humidity: 68%
Barometer: 30.10 inHg , 1019.3 hPa
Clouds: Few Clouds
Visibility: 10 miles , 16 km
Cloud details: Few Clouds 4100 ft
2024/07/24 05:55 KPLU 240555Z AUTO 00000KT 10SM FEW041 15/09 A3010 RMK AO2
KBFI - Seattle/Boeing, Washington, USA
Distance from station: NE 24mi, 38km
Updated: Tue, 23-Jul-2024 10:53pm PDT
Clear
Clear
 Wind from calm
Wind: Calm
Temperature: 64°F , 18°C
Dew Point: 48°F , 9°C
Humidity: 56%
Barometer: 30.09 inHg , 1019 hPa
Clouds: Clear
Visibility: 10 miles , 16 km
2024/07/24 05:53 KBFI 240553Z 00000KT 10SM CLR 18/09 A3009 RMK AO2 SLP187 T01830089 10244 20178 53010
 
KRNT - Renton, Washington, USA
Distance from station: ENE 25mi, 41km
Updated: Tue, 23-Jul-2024 10:53pm PDT
Clear
Clear
 Wind from N
Wind: N 9 mph , 15 km/h
Temperature: 66°F , 19°C
Dew Point: 50°F , 10°C
Humidity: 56%
Barometer: 30.08 inHg , 1018.6 hPa
Clouds: Clear
Visibility: 10 miles , 16 km
2024/07/24 05:53 KRNT 240553Z AUTO 35008KT 10SM CLR 19/10 A3008 RMK AO2 SLP190 T01890100 10244 20183 53009
KOLM - Olympia, Washington, USA
Distance from station: SSW 26mi, 41km
Updated: Tue, 23-Jul-2024 10:54pm PDT
Clear
Clear
 Wind from SSE
Wind: SSE 6 mph , 9 km/h
Temperature: 63°F , 17°C
Dew Point: 52°F , 11°C
Humidity: 68%
Barometer: 30.09 inHg , 1019 hPa
Clouds: Clear
Visibility: 10 miles , 16 km
2024/07/24 05:54 KOLM 240554Z AUTO 16005KT 10SM CLR 17/11 A3009 RMK AO2 SLP187 T01670106 10267 20161 51012 $
 
KCLS - Chehalis Central, Washington, USA
Distance from station: SSW 45mi, 73km
Updated: Tue, 23-Jul-2024 10:55pm PDT
Clear
Clear
 Wind from SW
Wind: SW 5 mph , 7 km/h
Temperature: 61°F , 16°C
Dew Point: 52°F , 11°C
Humidity: 72%
Barometer: 30.11 inHg , 1019.6 hPa
Clouds: Clear
Visibility: 10 miles , 16 km
2024/07/24 05:55 KCLS 240555Z AUTO 23004KT 10SM CLR 16/11 A3011 RMK AO2
KPAE - Everett, Washington, USA
Distance from station: NNE 46mi, 74km
Updated: Tue, 23-Jul-2024 10:53pm PDT
Clear
Clear
 Wind from N
Wind: N 6 mph , 9 km/h
Temperature: 59°F , 15°C
Dew Point: 48°F , 9°C
Humidity: 68%
Barometer: 30.11 inHg , 1019.6 hPa
Clouds: Clear
Visibility: 10 miles , 16 km
2024/07/24 05:53 KPAE 240553Z AUTO 36005KT 10SM CLR 15/09 A3011 RMK AO2 SLP193 T01500089 10217 20150 53005